Time;durP1;ratioP1;P1;durP2;ratioP2;P2;SDS_P1;SDS_P2;PMS_P1;PMS_P2;Temp;Humidity;BMP_temperature;BMP_pressure;BME280_temperature;BME280_humidity;BME280_pressure;Samples;Min_cycle;Max_cycle;Signal;HPM_P1;HPM_P2
2020/12/30 00:02:04;;;;;;;53.88;33.30;;;15.20;72.40;;;;;;4997354;28;20526;-69
2020/12/30 00:04:29;;;;;;;47.00;28.88;;;15.20;72.50;;;;;;4996914;28;20042;-67
2020/12/30 00:06:55;;;;;;;59.70;39.10;;;15.20;72.10;;;;;;4977485;28;20443;-64
2020/12/30 00:09:20;;;;;;;55.58;34.55;;;15.20;72.00;;;;;;4981812;28;20491;-67
2020/12/30 00:11:46;;;;;;;47.72;30.17;;;15.20;72.00;;;;;;5004708;28;20030;-67
2020/12/30 00:14:11;;;;;;;46.63;28.40;;;15.10;71.50;;;;;;4994940;28;20101;-68
2020/12/30 00:16:37;;;;;;;39.53;25.33;;;15.10;71.60;;;;;;5000543;28;20026;-67
2020/12/30 00:19:03;;;;;;;46.72;28.23;;;15.10;71.50;;;;;;4995053;28;20022;-66
2020/12/30 00:21:28;;;;;;;60.15;37.80;;;15.10;71.50;;;;;;4984743;28;20125;-68
2020/12/30 00:23:54;;;;;;;61.90;40.58;;;15.10;71.00;;;;;;5002507;28;20120;-67
2020/12/30 00:26:20;;;;;;;45.55;30.40;;;15.00;70.80;;;;;;4987937;28;20048;-67
2020/12/30 00:28:46;;;;;;;43.95;28.13;;;15.00;70.60;;;;;;5000619;28;20038;-69
2020/12/30 00:31:11;;;;;;;40.35;25.55;;;15.00;71.20;;;;;;4994612;28;20076;-67
2020/12/30 00:33:37;;;;;;;44.90;27.83;;;15.00;70.90;;;;;;5004195;28;20026;-69
2020/12/30 00:36:03;;;;;;;44.60;27.55;;;15.00;71.30;;;;;;5011481;28;20399;-66
2020/12/30 00:38:28;;;;;;;36.00;23.00;;;15.10;71.60;;;;;;5006717;28;20035;-67
2020/12/30 00:40:54;;;;;;;39.67;24.35;;;15.00;71.10;;;;;;4985260;28;20033;-68
2020/12/30 00:43:19;;;;;;;47.00;29.17;;;15.00;71.30;;;;;;5012739;28;20032;-68
2020/12/30 00:45:45;;;;;;;42.88;28.15;;;15.00;71.20;;;;;;5002485;28;20049;-67
2020/12/30 00:48:10;;;;;;;39.65;24.83;;;15.00;71.30;;;;;;4998915;28;20030;-66
2020/12/30 00:50:36;;;;;;;34.67;22.60;;;15.00;70.70;;;;;;4994989;28;20022;-69
2020/12/30 00:53:01;;;;;;;52.40;36.78;;;15.00;70.90;;;;;;5004615;28;20038;-67
2020/12/30 00:55:27;;;;;;;118.43;91.10;;;15.10;71.00;;;;;;5003238;28;20166;-67
2020/12/30 00:57:52;;;;;;;105.15;80.07;;;15.00;70.50;;;;;;4996278;28;20109;-66
2020/12/30 01:00:18;;;;;;;62.90;45.42;;;14.90;70.60;;;;;;4997416;28;20034;-69
2020/12/30 01:02:43;;;;;;;56.08;39.33;;;15.00;70.70;;;;;;5001225;28;20049;-67
2020/12/30 01:05:09;;;;;;;49.92;34.42;;;15.00;70.30;;;;;;4995015;28;20034;-67
2020/12/30 01:07:35;;;;;;;47.20;33.47;;;15.00;70.10;;;;;;5003964;28;20037;-69
2020/12/30 01:10:00;;;;;;;46.85;31.98;;;15.00;70.50;;;;;;5002278;28;20061;-68
2020/12/30 01:12:26;;;;;;;40.08;28.27;;;15.00;70.50;;;;;;4998565;28;20109;-66
2020/12/30 01:14:51;;;;;;;42.55;29.83;;;15.00;70.40;;;;;;5011319;28;20061;-67
2020/12/30 01:17:17;;;;;;;41.28;27.77;;;15.00;70.50;;;;;;5009045;28;20109;-67
2020/12/30 01:19:42;;;;;;;36.63;25.33;;;14.90;70.30;;;;;;5012942;28;20030;-69
2020/12/30 01:22:08;;;;;;;39.92;26.25;;;14.90;70.30;;;;;;5009874;28;20034;-69
2020/12/30 01:24:33;;;;;;;38.42;25.48;;;14.90;70.40;;;;;;4991775;28;20026;-67
2020/12/30 01:26:59;;;;;;;45.03;29.42;;;14.90;70.40;;;;;;4997188;28;20022;-67
2020/12/30 01:29:24;;;;;;;36.15;25.83;;;14.90;70.50;;;;;;5011134;28;20025;-68
2020/12/30 01:31:50;;;;;;;35.45;23.42;;;14.90;70.60;;;;;;5000557;28;20395;-67
2020/12/30 01:34:15;;;;;;;33.55;22.77;;;14.90;70.60;;;;;;5010673;28;20033;-68
2020/12/30 01:36:41;;;;;;;31.05;20.05;;;14.90;70.50;;;;;;5012888;28;20483;-66
2020/12/30 01:39:07;;;;;;;36.13;21.33;;;14.90;70.30;;;;;;5011722;28;20030;-69
2020/12/30 01:41:33;;;;;;;29.30;18.95;;;14.90;70.30;;;;;;5013038;28;20028;-66
2020/12/30 01:44:07;;;;;;;27.00;18.75;;;14.80;70.60;;;;;;4997678;28;20030;-62
2020/12/30 01:46:37;;;;;;;32.90;20.83;;;14.90;70.20;;;;;;5012521;28;20029;-69
2020/12/30 01:49:13;;;;;;;32.85;21.45;;;14.90;70.50;;;;;;4990585;28;20028;-67
2020/12/30 01:51:41;;;;;;;31.95;20.27;;;14.80;70.60;;;;;;5001412;28;20072;-67
2020/12/30 01:54:09;;;;;;;32.42;20.23;;;14.90;70.60;;;;;;4982903;28;20061;-67
2020/12/30 01:56:35;;;;;;;29.60;18.33;;;14.80;70.50;;;;;;5012376;28;20054;-67
2020/12/30 01:59:06;;;;;;;27.80;18.08;;;14.90;70.40;;;;;;5000280;28;20061;-67
2020/12/30 02:01:36;;;;;;;30.67;18.35;;;14.80;70.00;;;;;;5008940;28;20033;-67
2020/12/30 02:04:05;;;;;;;27.50;18.23;;;14.80;70.20;;;;;;4993880;28;20519;-65
2020/12/30 02:06:32;;;;;;;27.10;16.48;;;14.80;70.20;;;;;;4984291;28;20095;-67
2020/12/30 02:08:58;;;;;;;27.98;18.00;;;14.80;69.80;;;;;;5008707;28;20181;-65
2020/12/30 02:11:25;;;;;;;25.88;17.00;;;14.80;69.90;;;;;;5002777;28;20175;-67
2020/12/30 02:14:23;;;;;;;23.58;15.95;;;14.80;69.50;;;;;;4994170;28;20018;-68
2020/12/30 02:16:51;;;;;;;26.10;15.73;;;14.80;68.90;;;;;;4981451;28;20046;-67
2020/12/30 02:19:18;;;;;;;24.67;15.43;;;14.80;69.20;;;;;;4983360;28;20539;-69
2020/12/30 02:21:44;;;;;;;25.25;16.23;;;14.80;69.20;;;;;;4993032;28;20034;-67
2020/12/30 02:24:11;;;;;;;23.92;15.15;;;14.80;69.10;;;;;;5008247;28;20093;-69
2020/12/30 02:26:37;;;;;;;21.42;14.02;;;14.80;69.30;;;;;;5007935;28;20029;-67
2020/12/30 02:29:03;;;;;;;23.77;15.30;;;14.80;69.10;;;;;;5004805;28;20042;-69
2020/12/30 02:31:29;;;;;;;21.13;14.18;;;14.70;69.20;;;;;;4997970;28;20022;-64
2020/12/30 02:33:54;;;;;;;25.67;15.30;;;14.70;69.20;;;;;;4989210;28;20029;-67
2020/12/30 02:36:20;;;;;;;24.27;14.18;;;14.70;69.40;;;;;;5004228;28;20033;-67
2020/12/30 02:38:50;;;;;;;24.65;15.10;;;14.80;69.60;;;;;;4996444;28;20030;-68
2020/12/30 02:41:15;;;;;;;19.33;12.57;;;14.80;70.20;;;;;;4993198;28;20042;-67
2020/12/30 02:43:41;;;;;;;20.95;13.23;;;14.70;69.40;;;;;;5001484;28;20386;-67
2020/12/30 02:46:06;;;;;;;22.85;13.95;;;14.80;69.60;;;;;;5006027;28;20480;-67
2020/12/30 02:48:31;;;;;;;20.85;13.15;;;14.70;69.60;;;;;;4985895;28;20026;-68
2020/12/30 02:50:57;;;;;;;22.15;13.43;;;14.70;69.30;;;;;;4991860;28;20388;-67
2020/12/30 02:53:22;;;;;;;22.33;12.73;;;14.80;69.30;;;;;;4992561;28;20030;-67
2020/12/30 02:55:48;;;;;;;21.27;12.88;;;14.70;69.00;;;;;;4993479;28;20097;-69
2020/12/30 02:58:14;;;;;;;21.83;13.80;;;14.70;69.30;;;;;;4997198;28;20122;-63
2020/12/30 03:00:39;;;;;;;19.13;12.30;;;14.70;69.20;;;;;;4993393;28;20635;-66
2020/12/30 03:03:04;;;;;;;17.88;11.55;;;14.70;69.20;;;;;;4999395;28;20024;-67
2020/12/30 03:05:30;;;;;;;19.45;12.68;;;14.70;68.90;;;;;;5009835;28;20029;-68
2020/12/30 03:07:55;;;;;;;19.83;12.20;;;14.70;68.70;;;;;;4984779;28;20548;-67
2020/12/30 03:10:21;;;;;;;19.60;12.90;;;14.70;69.00;;;;;;4992455;28;20110;-67
2020/12/30 03:12:46;;;;;;;22.23;11.32;;;14.70;69.10;;;;;;4998897;28;20471;-66
2020/12/30 03:15:12;;;;;;;20.55;11.90;;;14.70;69.10;;;;;;4986372;28;20019;-65
2020/12/30 03:17:37;;;;;;;18.30;10.98;;;14.70;69.20;;;;;;4993605;28;20038;-67
2020/12/30 03:20:03;;;;;;;16.88;10.57;;;14.70;68.90;;;;;;4993329;28;20030;-67
2020/12/30 03:22:28;;;;;;;18.73;11.00;;;14.70;68.80;;;;;;4995045;28;20019;-68
2020/12/30 03:24:54;;;;;;;15.82;10.63;;;14.70;68.70;;;;;;4991893;28;20157;-67
2020/12/30 03:27:19;;;;;;;16.75;10.30;;;14.70;69.10;;;;;;4992805;28;20038;-67
2020/12/30 03:29:45;;;;;;;17.50;10.65;;;14.70;69.00;;;;;;4993080;28;20054;-67
2020/12/30 03:32:10;;;;;;;18.40;10.82;;;14.70;68.90;;;;;;4996651;28;20420;-68
2020/12/30 03:34:36;;;;;;;17.42;10.07;;;14.70;69.10;;;;;;4995456;28;20029;-67
2020/12/30 03:37:01;;;;;;;16.23;10.25;;;14.70;69.30;;;;;;4999417;28;20034;-68
2020/12/30 03:39:27;;;;;;;15.55;10.02;;;14.60;69.10;;;;;;5000912;28;20029;-67
2020/12/30 03:41:52;;;;;;;19.40;9.88;;;14.60;69.10;;;;;;4983901;28;20050;-69
2020/12/30 03:44:18;;;;;;;16.65;10.38;;;14.60;68.90;;;;;;4974318;28;20052;-66
2020/12/30 03:46:43;;;;;;;15.32;9.57;;;14.60;69.00;;;;;;5005785;28;20081;-67
2020/12/30 03:49:09;;;;;;;16.30;9.20;;;14.60;68.90;;;;;;4990995;28;20065;-67
2020/12/30 03:51:34;;;;;;;16.38;9.68;;;14.60;69.10;;;;;;4989860;28;20036;-68
2020/12/30 03:54:00;;;;;;;15.95;9.15;;;14.60;69.00;;;;;;5004518;28;20101;-68
2020/12/30 03:56:25;;;;;;;14.35;9.32;;;14.60;69.20;;;;;;5008972;28;20026;-67
2020/12/30 03:58:51;;;;;;;15.23;8.70;;;14.60;69.00;;;;;;4989359;28;20041;-67
2020/12/30 04:01:16;;;;;;;17.23;9.63;;;14.60;69.10;;;;;;4994211;28;20081;-67
2020/12/30 04:03:42;;;;;;;14.93;8.98;;;14.60;69.00;;;;;;5001115;28;20026;-67
2020/12/30 04:06:07;;;;;;;15.00;8.50;;;14.60;69.30;;;;;;4990649;28;20538;-67
2020/12/30 04:08:33;;;;;;;14.02;8.90;;;14.50;69.00;;;;;;4986785;28;20057;-68
2020/12/30 04:10:58;;;;;;;14.40;8.65;;;14.50;69.10;;;;;;4974196;28;20611;-66
2020/12/30 04:13:24;;;;;;;15.35;8.55;;;14.50;69.10;;;;;;4990837;28;20035;-66
2020/12/30 04:15:49;;;;;;;14.13;8.52;;;14.50;69.00;;;;;;4978183;28;20113;-68
2020/12/30 04:18:15;;;;;;;13.57;7.82;;;14.50;68.80;;;;;;4999210;28;20034;-69
2020/12/30 04:20:40;;;;;;;13.55;8.48;;;14.50;69.20;;;;;;5009426;28;20053;-67
2020/12/30 04:23:06;;;;;;;12.60;7.88;;;14.50;69.80;;;;;;4980705;28;20022;-67
2020/12/30 04:25:31;;;;;;;13.13;8.30;;;14.40;69.00;;;;;;5004769;28;20061;-69
2020/12/30 04:27:57;;;;;;;14.20;8.18;;;14.40;69.00;;;;;;4998795;28;20507;-69
2020/12/30 04:30:22;;;;;;;12.73;7.85;;;14.40;69.00;;;;;;5004859;28;20428;-66
2020/12/30 04:32:49;;;;;;;14.32;7.78;;;14.50;68.70;;;;;;5009628;28;20041;-66
2020/12/30 04:35:15;;;;;;;13.45;8.00;;;14.40;68.70;;;;;;4991596;28;20116;-66
2020/12/30 04:37:40;;;;;;;13.02;7.30;;;14.40;68.50;;;;;;4989277;28;20117;-66
2020/12/30 04:40:06;;;;;;;12.63;7.55;;;14.40;69.00;;;;;;4998264;28;20506;-69
2020/12/30 04:42:35;;;;;;;12.38;6.95;;;14.40;68.90;;;;;;4989821;28;20081;-71
2020/12/30 04:45:09;;;;;;;11.98;6.97;;;14.40;68.90;;;;;;4975648;28;20034;-68
2020/12/30 04:47:34;;;;;;;11.30;6.88;;;14.30;68.80;;;;;;4999633;28;20521;-67
2020/12/30 04:50:02;;;;;;;11.57;7.07;;;14.30;68.90;;;;;;5001165;28;20022;-67
2020/12/30 04:52:28;;;;;;;13.55;6.88;;;14.30;68.90;;;;;;4997312;28;20034;-67
2020/12/30 04:54:54;;;;;;;10.93;6.65;;;14.30;69.00;;;;;;4997868;28;20121;-69
2020/12/30 04:57:57;;;;;;;11.65;7.07;;;14.30;68.90;;;;;;5002437;28;20109;-67
2020/12/30 05:00:24;;;;;;;11.52;6.80;;;14.30;68.90;;;;;;4995880;28;20030;-68
2020/12/30 05:02:52;;;;;;;12.38;6.93;;;14.30;69.00;;;;;;4993202;28;20032;-68
2020/12/30 05:05:19;;;;;;;12.20;7.55;;;14.30;68.90;;;;;;5000094;28;20030;-69
2020/12/30 05:07:45;;;;;;;11.63;6.47;;;14.30;69.00;;;;;;5006261;28;20554;-67
2020/12/30 05:10:14;;;;;;;9.88;5.90;;;14.30;68.60;;;;;;4990011;28;20486;-69
2020/12/30 05:12:39;;;;;;;11.90;6.90;;;14.30;68.90;;;;;;5005638;28;20057;-67
2020/12/30 05:15:05;;;;;;;10.35;6.53;;;14.30;69.00;;;;;;4986676;28;20034;-67
2020/12/30 05:17:33;;;;;;;11.10;6.20;;;14.20;68.40;;;;;;5008123;28;20394;-67
2020/12/30 05:19:59;;;;;;;11.15;6.93;;;14.20;68.60;;;;;;5011243;28;20030;-68
2020/12/30 05:22:25;;;;;;;10.05;6.07;;;14.20;68.60;;;;;;4984645;28;20411;-67
2020/12/30 05:24:52;;;;;;;10.48;5.97;;;14.20;68.70;;;;;;4994378;28;20034;-68
2020/12/30 05:27:19;;;;;;;10.95;5.82;;;14.20;68.90;;;;;;4994828;28;20034;-69
2020/12/30 05:29:50;;;;;;;11.80;6.43;;;14.20;68.70;;;;;;5002985;28;20041;-67
2020/12/30 05:32:17;;;;;;;14.07;6.72;;;14.10;68.30;;;;;;4992886;28;20038;-67
2020/12/30 05:34:43;;;;;;;12.85;7.15;;;14.10;68.30;;;;;;4968111;28;20042;-68
2020/12/30 05:37:14;;;;;;;13.60;6.18;;;14.10;68.30;;;;;;4983083;28;20026;-67
2020/12/30 05:39:40;;;;;;;14.13;6.63;;;14.20;68.90;;;;;;4979837;28;20025;-67
2020/12/30 05:42:16;;;;;;;16.02;5.90;;;14.30;68.40;;;;;;4972327;28;20034;-67
2020/12/30 05:44:44;;;;;;;13.02;6.05;;;14.40;69.00;;;;;;4969989;28;20041;-67
2020/12/30 05:47:20;;;;;;;11.93;5.60;;;14.50;68.60;;;;;;4977970;28;20050;-66
2020/12/30 05:49:47;;;;;;;13.18;5.68;;;14.60;69.00;;;;;;4977177;28;20034;-67
2020/12/30 05:52:18;;;;;;;13.93;5.85;;;14.60;67.90;;;;;;4994356;28;20084;-67
2020/12/30 05:54:50;;;;;;;13.30;5.97;;;14.60;67.90;;;;;;4998299;28;20124;-67
2020/12/30 05:57:23;;;;;;;10.98;5.65;;;14.70;67.40;;;;;;4975972;28;20950;-67
2020/12/30 05:59:50;;;;;;;13.10;5.53;;;14.70;67.20;;;;;;5004982;28;20498;-68
2020/12/30 06:02:21;;;;;;;16.30;6.22;;;14.70;68.20;;;;;;5005690;28;20726;-65
2020/12/30 06:04:46;;;;;;;15.93;5.85;;;14.80;67.80;;;;;;4980083;28;20085;-68
2020/12/30 06:07:13;;;;;;;14.73;6.07;;;14.80;67.80;;;;;;4998859;28;20034;-65
2020/12/30 06:09:41;;;;;;;12.63;5.32;;;14.80;66.60;;;;;;4973355;28;20064;-68
2020/12/30 06:12:07;;;;;;;14.45;5.45;;;14.80;66.40;;;;;;4969251;28;20026;-66
2020/12/30 06:14:33;;;;;;;12.23;5.13;;;14.80;66.50;;;;;;4986436;28;20535;-63
2020/12/30 06:17:02;;;;;;;11.93;5.10;;;14.80;66.60;;;;;;4977147;28;20571;-65
2020/12/30 06:19:28;;;;;;;14.25;5.32;;;14.80;66.50;;;;;;4988515;28;20026;-66
2020/12/30 06:21:54;;;;;;;13.43;4.68;;;14.80;67.10;;;;;;5004609;28;20081;-66
2020/12/30 06:24:20;;;;;;;11.57;4.80;;;14.80;66.40;;;;;;4977001;28;20030;-67
2020/12/30 06:26:46;;;;;;;9.32;4.45;;;14.80;66.80;;;;;;5006548;28;20560;-66
2020/12/30 06:29:16;;;;;;;12.38;5.30;;;14.80;66.60;;;;;;4989151;28;20029;-69
2020/12/30 06:31:49;;;;;;;11.75;5.10;;;14.80;66.20;;;;;;4981060;28;20025;-67
2020/12/30 06:34:16;;;;;;;11.57;5.03;;;14.90;66.70;;;;;;4987786;28;20026;-64
2020/12/30 06:36:43;;;;;;;14.77;5.13;;;14.90;66.80;;;;;;4987711;28;20678;-64
2020/12/30 06:39:19;;;;;;;10.13;4.05;;;14.80;66.20;;;;;;4991580;28;20026;-66
2020/12/30 06:41:56;;;;;;;9.50;4.28;;;14.80;66.20;;;;;;4983821;28;20026;-66
2020/12/30 06:44:43;;;;;;;12.55;4.15;;;14.90;67.30;;;;;;4980117;28;20026;-67
2020/12/30 06:47:14;;;;;;;15.05;4.75;;;15.00;67.40;;;;;;5009532;28;20026;-67
2020/12/30 06:49:40;;;;;;;12.85;5.97;;;14.90;67.10;;;;;;5004656;28;20579;-70
2020/12/30 06:52:25;;;;;;;15.07;5.88;;;14.90;65.90;;;;;;4990954;28;20065;-66
2020/12/30 06:54:51;;;;;;;12.70;5.05;;;15.00;65.40;;;;;;4990897;28;20029;-68
2020/12/30 06:57:37;;;;;;;11.00;4.05;;;15.10;65.90;;;;;;5009393;28;20022;-68
2020/12/30 07:00:22;;;;;;;13.40;3.78;;;15.40;66.70;;;;;;4992036;28;20030;-67
2020/12/30 07:03:10;;;;;;;11.50;4.00;;;15.50;65.90;;;;;;4991065;28;20498;-68
2020/12/30 07:05:36;;;;;;;13.73;3.97;;;15.80;66.10;;;;;;5006431;28;20026;-67
2020/12/30 07:08:01;;;;;;;9.85;4.50;;;15.90;65.70;;;;;;5004754;28;20026;-66
2020/12/30 07:10:27;;;;;;;9.68;4.30;;;15.80;65.50;;;;;;4986019;28;20084;-65
2020/12/30 07:12:52;;;;;;;11.48;4.25;;;15.60;64.90;;;;;;4976898;28;20029;-66
2020/12/30 07:15:26;;;;;;;10.73;4.95;;;15.50;64.90;;;;;;4992595;28;20029;-67
2020/12/30 07:17:55;;;;;;;9.18;4.00;;;15.40;64.80;;;;;;5001405;28;20238;-66
2020/12/30 07:20:22;;;;;;;10.52;3.88;;;15.30;65.30;;;;;;4991840;28;20026;-68
2020/12/30 07:22:48;;;;;;;6.90;3.58;;;15.30;66.00;;;;;;4990877;28;20249;-66
2020/12/30 07:25:17;;;;;;;8.50;3.10;;;15.20;66.10;;;;;;4974123;28;20109;-66
2020/12/30 07:27:43;;;;;;;8.98;4.45;;;15.20;67.00;;;;;;5029916;28;20043;-68
2020/12/30 07:30:09;;;;;;;7.05;3.40;;;15.10;66.40;;;;;;5028528;28;20026;-66
2020/12/30 07:32:35;;;;;;;6.30;3.35;;;15.00;67.00;;;;;;5012232;28;20091;-67
2020/12/30 07:35:01;;;;;;;6.68;3.40;;;15.00;67.60;;;;;;5003584;28;20067;-66
2020/12/30 07:37:27;;;;;;;7.82;3.70;;;15.10;68.30;;;;;;5020054;28;20046;-66
2020/12/30 07:39:53;;;;;;;5.75;2.88;;;15.10;68.60;;;;;;5026182;28;20517;-67
2020/12/30 07:42:23;;;;;;;6.15;2.97;;;15.20;69.10;;;;;;5030323;28;20474;-67
2020/12/30 07:44:51;;;;;;;6.65;3.05;;;15.20;69.40;;;;;;5011243;28;20037;-68
2020/12/30 07:47:18;;;;;;;9.43;4.13;;;15.10;69.30;;;;;;5005937;28;20033;-69
2020/12/30 07:49:44;;;;;;;7.90;3.80;;;15.10;69.40;;;;;;4996022;28;20022;-66
2020/12/30 07:52:10;;;;;;;5.90;3.10;;;15.10;69.70;;;;;;4992264;28;20038;-66
2020/12/30 07:54:36;;;;;;;11.32;3.22;;;15.00;69.50;;;;;;4992890;28;20037;-66
2020/12/30 07:57:07;;;;;;;6.20;3.20;;;15.00;69.30;;;;;;4993060;28;20026;-66
2020/12/30 07:59:33;;;;;;;6.85;3.63;;;15.00;69.00;;;;;;5005870;28;20026;-66
2020/12/30 08:02:04;;;;;;;7.60;3.50;;;15.00;69.20;;;;;;4996438;28;20650;-68
2020/12/30 08:04:32;;;;;;;6.75;3.28;;;15.00;69.30;;;;;;4983609;28;20038;-66
2020/12/30 08:06:58;;;;;;;6.30;2.83;;;15.00;68.80;;;;;;4995058;28;20025;-68
2020/12/30 08:09:29;;;;;;;6.45;2.92;;;15.00;69.30;;;;;;5017161;28;20053;-66
2020/12/30 08:11:59;;;;;;;6.10;2.85;;;15.00;69.60;;;;;;5026055;28;20052;-64
2020/12/30 08:14:27;;;;;;;6.90;3.33;;;15.00;69.80;;;;;;5017444;28;20101;-66
2020/12/30 08:17:13;;;;;;;6.55;2.97;;;15.00;69.50;;;;;;5020505;28;20025;-65
2020/12/30 08:19:44;;;;;;;6.47;2.40;;;15.00;69.80;;;;;;5022368;28;20436;-66
2020/12/30 08:22:12;;;;;;;7.15;2.95;;;15.10;69.80;;;;;;5019313;28;21006;-66
2020/12/30 08:24:42;;;;;;;7.07;3.42;;;15.00;69.80;;;;;;5007214;28;20562;-68
2020/12/30 08:27:09;;;;;;;6.82;3.83;;;15.10;69.90;;;;;;5025035;28;20054;-69
2020/12/30 08:29:39;;;;;;;7.07;2.90;;;15.00;69.50;;;;;;5031153;28;20086;-66
2020/12/30 08:32:33;;;;;;;6.28;3.28;;;14.90;69.50;;;;;;5001840;28;20028;-66
2020/12/30 08:35:04;;;;;;;6.78;2.90;;;14.90;69.00;;;;;;5024684;28;20068;-66
2020/12/30 08:37:32;;;;;;;6.25;3.17;;;14.90;69.60;;;;;;5005381;28;20122;-66
2020/12/30 08:40:12;;;;;;;5.85;3.05;;;15.00;69.50;;;;;;4994995;28;20045;-69
2020/12/30 08:42:52;;;;;;;7.88;3.17;;;15.00;68.70;;;;;;5010236;28;20115;-64
2020/12/30 08:45:31;;;;;;;35.97;18.33;;;14.90;68.00;;;;;;4996587;28;20030;-66
2020/12/30 08:47:59;;;;;;;267.55;196.43;;;14.90;68.60;;;;;;5013087;28;20465;-67
2020/12/30 08:50:26;;;;;;;295.55;221.23;;;14.90;68.70;;;;;;5024553;28;20116;-68
2020/12/30 08:52:53;;;;;;;223.25;164.57;;;14.90;68.80;;;;;;5032397;28;20029;-67
2020/12/30 08:55:19;;;;;;;170.95;127.50;;;14.90;68.60;;;;;;5020035;28;20517;-67
2020/12/30 08:57:46;;;;;;;113.47;89.78;;;14.90;67.70;;;;;;4998810;28;20041;-67
2020/12/30 09:00:18;;;;;;;92.03;69.30;;;14.90;66.90;;;;;;5016443;28;20025;-67
2020/12/30 09:02:46;;;;;;;81.88;60.03;;;14.80;66.10;;;;;;5029785;28;20529;-66
2020/12/30 09:05:12;;;;;;;74.88;56.45;;;14.80;66.10;;;;;;5025418;28;20030;-67
2020/12/30 09:07:39;;;;;;;71.38;52.05;;;14.90;66.10;;;;;;5005788;28;20040;-66
2020/12/30 09:10:09;;;;;;;69.43;51.25;;;14.90;66.30;;;;;;5028125;28;20104;-67
2020/12/30 09:12:39;;;;;;;56.33;44.80;;;14.80;66.90;;;;;;5012549;28;20025;-67
2020/12/30 09:15:06;;;;;;;59.80;45.08;;;14.80;66.70;;;;;;5012055;28;20116;-67
2020/12/30 09:17:33;;;;;;;59.60;41.70;;;14.90;66.70;;;;;;5013085;28;20061;-67
2020/12/30 09:20:13;;;;;;;57.72;38.65;;;14.90;66.90;;;;;;5032012;28;20079;-69
2020/12/30 09:22:39;;;;;;;49.45;35.63;;;14.80;66.90;;;;;;5028915;28;20442;-69
2020/12/30 09:25:06;;;;;;;43.47;33.28;;;14.80;66.90;;;;;;5029619;28;20029;-67
2020/12/30 09:27:35;;;;;;;46.72;34.00;;;14.80;66.90;;;;;;5032006;28;20030;-66
2020/12/30 09:30:09;;;;;;;45.47;32.50;;;14.80;66.80;;;;;;5031598;28;20495;-68
2020/12/30 09:32:35;;;;;;;40.53;30.48;;;14.80;66.80;;;;;;5027698;28;20024;-68
2020/12/30 09:35:02;;;;;;;37.60;26.52;;;14.80;66.70;;;;;;5007407;28;20110;-67
2020/12/30 09:37:28;;;;;;;35.92;27.10;;;14.80;66.60;;;;;;5016444;28;20045;-67
2020/12/30 09:42:20;;;;;;;33.50;23.92;;;14.80;66.60;;;;;;5081741;23;20047;-67
2020/12/30 09:44:46;;;;;;;36.88;26.30;;;14.80;66.70;;;;;;5030507;28;20410;-67
2020/12/30 09:47:11;;;;;;;31.02;23.15;;;14.80;66.80;;;;;;5013243;28;20025;-69
2020/12/30 09:49:37;;;;;;;29.08;21.13;;;14.80;67.30;;;;;;5019450;28;20071;-66
2020/12/30 09:52:02;;;;;;;29.65;22.33;;;14.70;66.10;;;;;;5013570;28;20030;-67
2020/12/30 09:54:28;;;;;;;26.90;19.95;;;14.70;66.50;;;;;;5010158;28;20065;-66
2020/12/30 09:56:53;;;;;;;29.52;20.55;;;14.80;66.40;;;;;;5004138;28;20369;-70
2020/12/30 09:59:22;;;;;;;26.13;19.05;;;14.70;66.30;;;;;;4992615;28;20030;-67
2020/12/30 10:01:48;;;;;;;27.10;18.98;;;14.70;66.10;;;;;;5007144;28;20025;-65
2020/12/30 10:04:14;;;;;;;26.38;18.35;;;14.70;66.20;;;;;;5010438;28;20545;-66
2020/12/30 10:06:39;;;;;;;25.40;18.15;;;14.80;66.20;;;;;;5009946;28;20109;-66
2020/12/30 10:09:05;;;;;;;25.00;17.70;;;14.70;66.20;;;;;;4993766;28;20033;-66
2020/12/30 10:11:30;;;;;;;24.92;17.77;;;14.70;66.20;;;;;;5011082;28;20053;-68
2020/12/30 10:13:56;;;;;;;25.05;17.48;;;14.70;66.20;;;;;;4990349;28;20052;-67
2020/12/30 10:16:21;;;;;;;23.95;15.88;;;14.70;66.00;;;;;;5006246;28;20061;-68
2020/12/30 10:18:47;;;;;;;25.10;17.27;;;14.70;66.00;;;;;;4993517;28;20509;-67
2020/12/30 10:21:12;;;;;;;23.55;16.05;;;14.80;65.90;;;;;;4990427;28;20030;-67
2020/12/30 10:23:38;;;;;;;23.55;15.80;;;14.70;65.60;;;;;;5009052;28;20040;-67
2020/12/30 10:26:03;;;;;;;23.27;15.50;;;14.70;65.90;;;;;;5010985;28;20030;-67
2020/12/30 10:28:29;;;;;;;22.52;14.68;;;14.70;65.80;;;;;;5010777;28;20036;-67
2020/12/30 10:30:54;;;;;;;20.52;14.52;;;14.70;65.90;;;;;;4988017;28;20037;-67
2020/12/30 10:33:20;;;;;;;25.85;14.40;;;14.70;66.00;;;;;;5007906;28;20405;-66
2020/12/30 10:35:45;;;;;;;21.38;13.65;;;14.70;66.00;;;;;;4992653;28;20022;-67
2020/12/30 10:38:11;;;;;;;19.50;13.30;;;14.70;65.80;;;;;;5003836;28;20021;-66
2020/12/30 10:40:37;;;;;;;24.15;13.45;;;14.70;65.90;;;;;;5010400;28;20021;-67
2020/12/30 10:43:03;;;;;;;20.58;12.93;;;14.70;65.70;;;;;;5007430;28;20034;-66
2020/12/30 10:45:29;;;;;;;21.17;13.07;;;14.80;66.00;;;;;;5011002;28;20029;-66
2020/12/30 10:47:55;;;;;;;19.98;12.57;;;14.70;65.90;;;;;;5010426;28;20026;-67
2020/12/30 10:50:20;;;;;;;23.08;13.13;;;14.70;66.00;;;;;;5008296;28;20036;-67
2020/12/30 10:52:46;;;;;;;19.55;12.20;;;14.70;66.00;;;;;;5010319;28;20033;-65
2020/12/30 10:55:11;;;;;;;19.48;11.18;;;14.70;66.40;;;;;;5010515;28;20057;-66
2020/12/30 10:57:37;;;;;;;21.10;12.70;;;14.70;65.90;;;;;;5009555;28;20025;-66
2020/12/30 11:00:03;;;;;;;20.58;11.77;;;14.70;65.90;;;;;;4993042;28;20030;-69
2020/12/30 11:02:29;;;;;;;18.55;11.82;;;14.70;65.90;;;;;;4991198;28;20036;-67
2020/12/30 11:04:54;;;;;;;25.10;13.60;;;14.60;65.70;;;;;;4997886;28;20402;-69
2020/12/30 11:07:20;;;;;;;18.27;11.13;;;14.70;65.70;;;;;;4998748;28;20477;-67
2020/12/30 11:09:45;;;;;;;20.95;12.25;;;14.70;65.60;;;;;;4989940;28;20032;-68
2020/12/30 11:12:11;;;;;;;22.30;11.90;;;14.60;65.60;;;;;;5007758;28;20098;-67
2020/12/30 11:14:37;;;;;;;23.83;12.25;;;14.60;65.70;;;;;;4983802;28;20483;-69
2020/12/30 11:17:02;;;;;;;21.52;12.10;;;14.60;65.70;;;;;;5010100;28;20029;-66
2020/12/30 11:19:28;;;;;;;26.42;12.80;;;14.60;65.60;;;;;;4992312;28;20022;-68
2020/12/30 11:21:54;;;;;;;23.38;11.73;;;14.60;65.70;;;;;;4974393;28;20030;-67
2020/12/30 11:24:19;;;;;;;23.85;12.70;;;14.60;65.70;;;;;;5006304;28;20522;-68
2020/12/30 11:26:46;;;;;;;24.25;11.85;;;14.60;65.60;;;;;;5009909;28;20073;-67
2020/12/30 11:29:12;;;;;;;22.55;11.55;;;14.60;65.70;;;;;;5006941;28;20026;-67
2020/12/30 11:31:37;;;;;;;24.75;12.70;;;14.50;65.50;;;;;;5009857;28;20026;-67
2020/12/30 11:34:03;;;;;;;21.45;11.23;;;14.60;65.70;;;;;;5009073;28;20028;-67
2020/12/30 11:36:29;;;;;;;20.63;10.52;;;14.60;65.70;;;;;;4992030;28;20021;-67
2020/12/30 11:38:54;;;;;;;20.85;10.57;;;14.50;65.70;;;;;;4990898;28;20394;-66
2020/12/30 11:41:20;;;;;;;19.77;11.10;;;14.60;65.40;;;;;;4985742;28;20026;-67
2020/12/30 11:43:46;;;;;;;17.75;10.20;;;14.60;65.20;;;;;;5008964;28;20066;-67
2020/12/30 11:46:14;;;;;;;18.00;9.70;;;14.60;65.20;;;;;;5008616;28;20034;-68
2020/12/30 11:48:40;;;;;;;17.88;9.27;;;14.60;65.10;;;;;;5009480;28;20112;-67
2020/12/30 11:51:05;;;;;;;16.60;9.82;;;14.60;65.10;;;;;;5007090;28;20609;-68
2020/12/30 11:53:31;;;;;;;19.25;11.23;;;14.60;64.90;;;;;;5008955;28;20033;-66
2020/12/30 11:55:57;;;;;;;17.65;9.65;;;14.60;64.90;;;;;;5008481;28;20022;-67
2020/12/30 11:58:23;;;;;;;22.77;12.55;;;14.60;64.90;;;;;;4989399;28;20030;-66
2020/12/30 12:00:48;;;;;;;25.70;13.10;;;14.60;65.00;;;;;;5003418;28;20044;-69
2020/12/30 12:03:14;;;;;;;24.48;12.10;;;14.60;65.10;;;;;;4984454;28;20582;-66
2020/12/30 12:05:39;;;;;;;23.83;11.63;;;14.60;64.90;;;;;;4988663;28;20040;-63
2020/12/30 12:08:05;;;;;;;22.83;11.70;;;14.70;64.90;;;;;;5003368;28;20042;-66
2020/12/30 12:10:31;;;;;;;20.75;12.15;;;14.70;64.70;;;;;;5005986;28;20390;-66
2020/12/30 12:12:57;;;;;;;19.33;10.65;;;14.80;64.50;;;;;;5010255;28;20025;-68
2020/12/30 12:15:22;;;;;;;23.40;11.48;;;14.80;64.40;;;;;;5007361;28;20525;-67
2020/12/30 12:17:48;;;;;;;20.80;11.07;;;14.80;64.40;;;;;;5006864;28;20037;-69
2020/12/30 12:20:13;;;;;;;21.52;10.70;;;14.90;64.30;;;;;;5001351;28;20026;-67
2020/12/30 12:22:39;;;;;;;19.33;9.70;;;14.90;64.40;;;;;;5009069;28;20034;-66
2020/12/30 12:25:04;;;;;;;18.30;10.27;;;14.90;64.20;;;;;;4995809;28;20445;-67
2020/12/30 12:27:30;;;;;;;18.98;10.15;;;14.90;64.30;;;;;;4979415;28;20391;-68
2020/12/30 12:29:55;;;;;;;19.63;10.20;;;14.90;64.00;;;;;;4972929;28;20112;-65
2020/12/30 12:32:23;;;;;;;20.58;10.32;;;14.90;63.90;;;;;;4998235;28;20039;-66
2020/12/30 12:34:51;;;;;;;25.38;13.75;;;14.90;64.00;;;;;;4988704;28;20034;-66